Time;durP1;ratioP1;P1;durP2;ratioP2;P2;SDS_P1;SDS_P2;PMS_P1;PMS_P2;Temp;Humidity;BMP_temperature;BMP_pressure;BME280_temperature;BME280_humidity;BME280_pressure;Samples;Min_cycle;Max_cycle;Signal;HPM_P1;HPM_P2
2022/04/25 00:02:06;;;;;;;6.50;2.83;;;;;;;11.60;71.55;98805.66;4414898;32;33032;-87
2022/04/25 00:04:35;;;;;;;8.27;2.97;;;;;;;10.71;74.34;98809.38;4418430;32;33839;-87
2022/04/25 00:07:03;;;;;;;8.73;3.12;;;;;;;10.91;74.19;98803.84;4406139;32;33830;-84
2022/04/25 00:09:30;;;;;;;6.25;2.62;;;;;;;10.45;75.45;98805.16;4415375;32;31893;-84
2022/04/25 00:11:59;;;;;;;6.07;2.72;;;;;;;10.28;75.94;98808.09;4405778;32;34032;-85
2022/04/25 00:14:26;;;;;;;9.25;3.10;;;;;;;9.97;77.17;98804.56;4418773;32;33205;-85
2022/04/25 00:16:56;;;;;;;5.53;2.87;;;;;;;9.88;78.23;98812.03;4419055;32;33379;-85
2022/04/25 00:19:24;;;;;;;10.00;3.17;;;;;;;9.86;77.79;98811.13;4399823;32;31938;-88
2022/04/25 00:21:52;;;;;;;8.40;3.50;;;;;;;9.62;79.55;98809.50;4405343;32;33038;-87
2022/04/25 00:24:19;;;;;;;10.38;3.72;;;;;;;9.60;80.04;98806.00;4415493;32;33478;-84
2022/04/25 00:26:48;;;;;;;9.60;2.70;;;;;;;10.13;78.59;98797.28;4412781;32;32292;-88
2022/04/25 00:29:15;;;;;;;6.87;2.60;;;;;;;10.43;76.13;98792.19;4417118;32;33411;-85
2022/04/25 00:31:43;;;;;;;6.75;3.03;;;;;;;10.58;75.56;98791.72;4417378;32;32871;-85
2022/04/25 00:34:11;;;;;;;7.22;3.08;;;;;;;11.12;73.43;98786.28;4399319;32;33818;-85
2022/04/25 00:36:39;;;;;;;8.55;2.95;;;;;;;10.89;73.82;98793.44;4408868;32;32648;-85
2022/04/25 00:39:06;;;;;;;7.25;3.10;;;;;;;10.42;75.71;98787.81;4416268;32;33720;-88
2022/04/25 00:41:34;;;;;;;8.90;2.70;;;;;;;10.57;75.50;98792.56;4401781;32;34664;-87
2022/04/25 00:44:02;;;;;;;10.35;3.22;;;;;;;10.32;75.70;98794.44;4404787;32;33113;-85
2022/04/25 00:46:30;;;;;;;6.15;2.80;;;;;;;10.59;74.37;98788.31;4416275;32;34129;-83
2022/04/25 00:48:58;;;;;;;10.73;2.92;;;;;;;10.31;75.36;98782.31;4405184;32;31901;-83
2022/04/25 00:51:26;;;;;;;9.60;3.37;;;;;;;10.45;75.02;98787.03;4405106;32;34610;-83
2022/04/25 00:53:54;;;;;;;7.93;2.97;;;;;;;10.34;75.94;98792.78;4418704;32;32081;-83
2022/04/25 00:56:23;;;;;;;7.22;2.58;;;;;;;10.18;76.67;98790.53;4405245;32;32432;-83
2022/04/25 00:58:50;;;;;;;8.40;2.90;;;;;;;10.06;77.01;98803.09;4417920;32;32175;-83
2022/04/25 01:01:18;;;;;;;7.90;3.75;;;;;;;10.82;74.16;98792.41;4406207;32;33102;-83
2022/04/25 01:03:48;;;;;;;6.78;2.83;;;;;;;11.29;70.69;98801.41;4411074;32;33407;-83
2022/04/25 01:06:16;;;;;;;7.37;2.50;;;;;;;11.66;68.58;98804.94;4404646;32;33535;-83
2022/04/25 01:08:45;;;;;;;6.15;2.45;;;;;;;11.70;67.78;98801.56;4418980;32;33668;-83
2022/04/25 01:11:13;;;;;;;7.12;2.80;;;;;;;11.45;68.84;98806.13;4405159;32;32867;-83
2022/04/25 01:13:43;;;;;;;7.25;2.62;;;;;;;12.07;66.53;98810.25;4418101;32;32607;-83
2022/04/25 01:16:11;;;;;;;6.12;2.30;;;;;;;12.26;65.37;98802.03;4405788;32;34155;-83
2022/04/25 01:18:38;;;;;;;7.05;2.70;;;;;;;12.41;64.58;98798.03;4406676;32;33616;-83
2022/04/25 01:21:09;;;;;;;6.30;2.42;;;;;;;11.61;67.48;98813.47;4418315;32;33810;-82
2022/04/25 01:29:09;;;;;;;5.25;2.10;;;;;;;11.36;68.89;98811.13;4407303;32;32667;-82
2022/04/25 01:31:37;;;;;;;4.37;2.17;;;;;;;11.13;69.51;98811.37;4418269;32;33181;-82
2022/04/25 01:34:05;;;;;;;4.90;1.98;;;;;;;10.98;71.56;98808.38;4417527;32;32254;-83
2022/04/25 01:36:32;;;;;;;5.95;2.87;;;;;;;11.64;68.97;98796.25;4417688;32;34391;-83
2022/04/25 01:39:01;;;;;;;8.18;2.70;;;;;;;11.73;68.50;98804.25;4417454;32;32078;-83
2022/04/25 01:41:28;;;;;;;6.93;2.62;;;;;;;11.97;67.35;98807.44;4405990;32;32017;-83
2022/04/25 01:43:55;;;;;;;8.95;2.55;;;;;;;11.61;69.03;98800.50;4418926;32;33591;-83
2022/04/25 01:46:23;;;;;;;4.20;2.00;;;;;;;11.85;68.68;98793.28;4413715;32;33306;-83
2022/04/25 01:48:51;;;;;;;7.05;2.30;;;;;;;11.80;68.75;98788.87;4406946;32;33369;-83
2022/04/25 01:51:20;;;;;;;6.15;2.10;;;;;;;11.13;71.46;98793.25;4387182;32;34023;-83
2022/04/25 01:53:47;;;;;;;6.00;2.45;;;;;;;11.43;71.00;98797.44;4408920;32;32599;-83
2022/04/25 01:56:15;;;;;;;6.47;2.40;;;;;;;11.69;69.61;98799.81;4408642;32;32325;-83
2022/04/25 01:58:42;;;;;;;7.43;2.62;;;;;;;11.44;70.15;98801.81;4409075;32;33808;-83
2022/04/25 02:01:10;;;;;;;5.45;2.55;;;;;;;12.03;68.37;98791.13;4403183;32;31916;-82
2022/04/25 02:03:40;;;;;;;7.70;3.08;;;;;;;11.98;68.11;98788.44;4421705;32;34544;-83
2022/04/25 02:06:08;;;;;;;10.88;3.37;;;;;;;11.52;70.19;98794.22;4433663;32;34024;-83
2022/04/25 02:08:37;;;;;;;9.15;3.42;;;;;;;12.39;67.01;98782.41;4420285;32;32092;-83
2022/04/25 02:11:21;;;;;;;10.88;5.60;;;;;;;12.56;65.93;98787.94;4415354;32;33624;-82
2022/04/25 02:13:51;;;;;;;12.07;4.87;;;;;;;12.38;66.44;98786.72;4402633;32;33529;-83
2022/04/25 02:16:19;;;;;;;8.43;3.92;;;;;;;12.44;66.35;98779.88;4408368;32;33482;-83
2022/04/25 02:18:48;;;;;;;10.07;4.35;;;;;;;12.32;66.83;98767.53;4420580;32;31949;-83
2022/04/25 02:21:15;;;;;;;7.15;3.80;;;;;;;12.46;66.67;98778.19;4408065;32;33376;-83
2022/04/25 02:23:44;;;;;;;6.40;2.92;;;;;;;12.18;67.59;98777.62;4420386;32;33959;-83
2022/04/25 02:26:12;;;;;;;7.72;2.97;;;;;;;12.49;66.42;98783.47;4408405;32;33542;-83
2022/04/25 02:28:40;;;;;;;7.85;2.50;;;;;;;12.83;64.48;98782.44;4407288;32;35383;-83
2022/04/25 02:31:08;;;;;;;8.63;3.00;;;;;;;12.45;66.29;98779.06;4420798;32;32119;-83
2022/04/25 02:33:36;;;;;;;7.10;2.90;;;;;;;12.71;65.46;98788.25;4420807;32;32495;-83
2022/04/25 02:36:04;;;;;;;7.93;2.45;;;;;;;12.65;66.19;98789.84;4419945;32;34470;-82
2022/04/25 02:38:37;;;;;;;5.80;2.92;;;;;;;12.77;65.42;98801.38;4406783;32;32067;-83
2022/04/25 02:41:05;;;;;;;7.28;2.00;;;;;;;12.20;66.44;98810.53;4416789;32;33850;-82
2022/04/25 02:43:40;;;;;;;4.65;1.70;;;;;;;11.32;69.00;98814.44;4395755;32;32950;-83
2022/04/25 02:46:10;;;;;;;4.15;1.50;;;;;;;11.27;68.61;98811.75;4407233;32;32407;-83
2022/04/25 02:48:40;;;;;;;8.95;1.60;;;;;;;11.28;68.64;98808.31;4419690;32;33887;-83
2022/04/25 02:51:08;;;;;;;5.60;1.77;;;;;;;11.40;68.20;98818.13;4420315;32;33914;-83
2022/04/25 02:53:36;;;;;;;7.35;1.73;;;;;;;11.30;68.34;98826.50;4420757;32;32444;-83
2022/04/25 02:56:05;;;;;;;5.72;1.92;;;;;;;11.06;69.08;98832.78;4406383;32;33030;-83
2022/04/25 02:58:35;;;;;;;5.22;1.90;;;;;;;10.95;69.25;98839.38;4420873;32;34254;-82
2022/04/25 03:01:06;;;;;;;7.68;1.52;;;;;;;10.93;69.90;98846.22;4402956;32;32309;-83
2022/04/25 03:03:35;;;;;;;6.22;1.95;;;;;;;11.48;67.92;98845.13;4405896;32;32656;-83
2022/04/25 03:06:06;;;;;;;4.65;1.80;;;;;;;12.23;64.76;98855.59;4432965;32;35007;-83
2022/04/25 03:08:36;;;;;;;4.25;1.70;;;;;;;12.53;64.48;98858.00;4410713;32;32418;-83
2022/04/25 03:11:08;;;;;;;4.43;1.70;;;;;;;12.56;64.21;98855.50;4411898;32;32551;-83
2022/04/25 03:13:38;;;;;;;6.43;2.10;;;;;;;12.36;65.02;98863.72;4406666;32;33602;-83
2022/04/25 03:16:07;;;;;;;6.07;1.58;;;;;;;12.72;62.89;98862.75;4411681;32;33022;-83
2022/04/25 03:18:36;;;;;;;4.70;1.58;;;;;;;12.48;63.59;98868.31;4405132;32;32839;-83
2022/04/25 03:21:05;;;;;;;5.03;1.70;;;;;;;12.77;62.36;98865.47;4405087;32;34531;-83
2022/04/25 03:23:36;;;;;;;5.80;2.35;;;;;;;13.07;61.75;98869.53;4401887;32;32110;-83
2022/04/25 03:26:05;;;;;;;7.82;2.00;;;;;;;12.25;63.66;98870.38;4416009;32;34837;-83
2022/04/25 03:28:33;;;;;;;5.53;1.17;;;;;;;11.84;65.00;98865.06;4420594;32;33648;-83
2022/04/25 03:31:04;;;;;;;6.07;1.73;;;;;;;11.38;66.80;98867.34;4411456;32;32401;-83
2022/04/25 03:33:34;;;;;;;4.95;1.42;;;;;;;11.24;67.74;98867.81;4408851;32;34016;-83
2022/04/25 03:36:03;;;;;;;4.80;1.48;;;;;;;11.88;66.28;98869.50;4419580;32;33008;-84
2022/04/25 03:38:31;;;;;;;3.72;1.48;;;;;;;12.30;64.42;98868.75;4410619;32;31867;-83
2022/04/25 03:40:59;;;;;;;6.37;2.05;;;;;;;12.73;63.68;98859.31;4410487;32;32286;-82
2022/04/25 03:43:27;;;;;;;3.33;1.60;;;;;;;12.15;65.92;98871.03;4410764;32;33012;-83
2022/04/25 03:45:55;;;;;;;5.32;1.37;;;;;;;11.45;67.28;98868.38;4410636;32;32224;-83
2022/04/25 03:48:23;;;;;;;5.37;1.62;;;;;;;11.10;68.70;98868.31;4423792;32;32885;-83
2022/04/25 03:50:51;;;;;;;6.10;1.52;;;;;;;10.88;69.83;98868.56;4397572;32;32471;-83
2022/04/25 03:53:19;;;;;;;4.68;1.42;;;;;;;11.12;69.03;98861.44;4418613;32;31968;-83
2022/04/25 03:58:32;;;;;;;6.37;1.55;;;;;;;11.40;68.08;98857.03;4426134;32;34363;-83
2022/04/25 04:01:02;;;;;;;4.18;1.33;;;;;;;11.61;67.00;98857.56;4407953;32;34263;-82
2022/04/25 04:03:34;;;;;;;4.70;2.45;;;;;;;10.98;69.17;98861.06;4404191;32;32369;-83
2022/04/25 04:06:02;;;;;;;4.30;1.33;;;;;;;11.10;69.17;98857.94;4421563;32;34233;-83
2022/04/25 04:08:30;;;;;;;3.62;1.25;;;;;;;11.43;67.77;98866.59;4410932;32;32868;-83
2022/04/25 04:10:58;;;;;;;4.22;0.93;;;;;;;11.59;67.30;98872.22;4422969;32;34050;-83
2022/04/25 04:13:25;;;;;;;3.00;1.30;;;;;;;12.12;65.33;98876.12;4420466;32;33781;-83
2022/04/25 04:15:56;;;;;;;4.00;1.27;;;;;;;12.61;64.27;98874.63;4409753;32;32271;-83
2022/04/25 04:18:23;;;;;;;3.78;1.45;;;;;;;13.20;62.43;98878.44;4398284;32;31852;-83
2022/04/25 04:20:51;;;;;;;6.53;2.90;;;;;;;13.33;62.13;98880.47;4409935;32;32335;-83
2022/04/25 04:23:19;;;;;;;6.65;2.10;;;;;;;12.99;62.22;98878.03;4409344;32;33282;-84
2022/04/25 04:25:47;;;;;;;5.72;1.90;;;;;;;13.31;61.30;98882.19;4391260;32;33553;-83
2022/04/25 04:28:14;;;;;;;5.00;1.65;;;;;;;13.36;61.54;98885.72;4394308;32;32123;-83
2022/04/25 04:30:44;;;;;;;3.20;1.35;;;;;;;13.75;60.38;98877.78;4403074;32;32276;-83
2022/04/25 04:33:12;;;;;;;5.68;1.58;;;;;;;13.62;61.19;98874.91;4409965;32;33750;-83
2022/04/25 04:38:26;;;;;;;4.20;1.40;;;;;;;13.64;60.66;98881.03;4409462;32;32970;-83
2022/04/25 04:40:54;;;;;;;6.05;1.45;;;;;;;13.62;60.76;98885.31;4410025;32;33012;-83
2022/04/25 04:43:21;;;;;;;5.05;1.42;;;;;;;13.87;59.84;98892.72;4407965;32;34175;-83
2022/04/25 04:45:49;;;;;;;2.70;1.20;;;;;;;13.69;60.51;98884.56;4409568;32;32164;-84
2022/04/25 04:48:16;;;;;;;6.22;1.40;;;;;;;13.76;60.25;98878.63;4406384;32;34263;-83
2022/04/25 04:50:44;;;;;;;4.65;1.30;;;;;;;13.47;61.48;98892.00;4420040;32;32623;-83
2022/04/25 04:53:12;;;;;;;4.57;1.42;;;;;;;13.27;62.57;98893.31;4416193;32;34433;-83
2022/04/25 04:55:39;;;;;;;5.37;1.40;;;;;;;13.27;62.34;98894.19;4415891;32;33886;-83
2022/04/25 04:58:07;;;;;;;3.85;1.30;;;;;;;13.66;60.91;98894.94;4407636;32;33553;-83
2022/04/25 05:00:36;;;;;;;6.30;1.62;;;;;;;13.79;60.61;98894.31;4432537;32;33887;-83
2022/04/25 05:03:03;;;;;;;3.50;1.70;;;;;;;13.80;59.92;98896.06;4420785;32;33529;-84
2022/04/25 05:05:32;;;;;;;3.95;1.27;;;;;;;14.05;59.50;98906.88;4408043;32;34051;-84
2022/04/25 05:07:59;;;;;;;6.03;1.70;;;;;;;13.60;60.70;98898.31;4434776;32;34357;-84
2022/04/25 05:10:27;;;;;;;5.85;1.73;;;;;;;14.16;59.85;98902.75;4418808;32;34673;-83
2022/04/25 05:12:55;;;;;;;3.03;1.40;;;;;;;14.52;58.99;98893.72;4408383;32;32879;-84
2022/04/25 05:15:23;;;;;;;4.93;1.60;;;;;;;14.33;59.66;98903.87;4400556;32;33898;-83
2022/04/25 05:17:53;;;;;;;7.12;1.60;;;;;;;14.15;60.09;98914.00;4404872;32;30417;-84
2022/04/25 05:20:23;;;;;;;7.05;1.62;;;;;;;14.58;58.45;98909.47;4421199;32;33936;-84
2022/04/25 05:22:52;;;;;;;7.82;1.75;;;;;;;14.19;59.06;98913.19;4399262;32;34461;-83
2022/04/25 05:25:22;;;;;;;5.45;1.70;;;;;;;14.01;59.51;98905.97;4414412;32;33718;-85
2022/04/25 05:27:54;;;;;;;5.80;1.80;;;;;;;13.35;61.79;98913.47;4421474;32;33667;-83
2022/04/25 05:30:23;;;;;;;4.70;1.80;;;;;;;13.78;60.04;98918.56;4414198;32;33626;-83
2022/04/25 05:32:54;;;;;;;7.60;2.45;;;;;;;14.24;58.84;98913.28;4416332;32;32311;-84
2022/04/25 05:35:27;;;;;;;6.12;1.90;;;;;;;13.64;60.65;98909.66;4419339;32;32332;-85
2022/04/25 05:37:55;;;;;;;4.97;1.77;;;;;;;13.21;62.50;98914.00;4433154;32;33500;-84
2022/04/25 05:40:25;;;;;;;5.35;1.65;;;;;;;12.17;66.01;98918.66;4407404;32;33844;-86
2022/04/25 05:42:55;;;;;;;6.10;1.70;;;;;;;12.12;66.32;98915.06;4403634;32;33251;-85
2022/04/25 05:45:25;;;;;;;4.87;1.40;;;;;;;12.44;65.37;98920.13;4408443;32;32656;-86
2022/04/25 05:47:56;;;;;;;4.65;1.15;;;;;;;11.74;68.36;98927.91;4420810;32;34236;-85
2022/04/25 05:53:16;;;;;;;5.37;1.98;;;;;;;11.51;68.85;98924.72;4422169;32;33554;-87
2022/04/25 05:55:44;;;;;;;5.70;1.52;;;;;;;11.63;69.06;98934.53;4422087;32;34041;-86
2022/04/25 05:58:11;;;;;;;4.15;1.20;;;;;;;11.69;68.64;98924.34;4438538;32;33296;-87
2022/04/25 06:00:39;;;;;;;3.97;1.15;;;;;;;11.68;69.01;98922.56;4438844;32;33640;-85
2022/04/25 06:03:08;;;;;;;5.00;1.12;;;;;;;11.63;69.35;98926.75;4438631;32;33607;-84
2022/04/25 06:05:37;;;;;;;4.20;1.10;;;;;;;11.57;69.45;98915.41;4423881;32;34148;-87
2022/04/25 06:08:06;;;;;;;3.78;1.50;;;;;;;11.74;69.76;98923.63;4437036;32;34268;-86
2022/04/25 06:10:34;;;;;;;2.75;0.90;;;;;;;11.92;68.75;98928.44;4424378;32;33816;-84
2022/04/25 06:13:01;;;;;;;4.30;1.12;;;;;;;11.81;67.62;98922.94;4437417;32;34702;-85
2022/04/25 06:15:29;;;;;;;3.55;1.10;;;;;;;12.02;67.40;98918.28;4421545;32;34056;-86
2022/04/25 06:17:57;;;;;;;2.40;0.80;;;;;;;12.04;67.82;98920.06;4436129;32;34164;-86
2022/04/25 06:20:25;;;;;;;3.45;0.80;;;;;;;12.14;66.96;98921.19;4411539;32;31966;-87
2022/04/25 06:22:54;;;;;;;4.80;0.90;;;;;;;12.28;67.27;98917.19;4424839;32;32668;-85
2022/04/25 06:25:27;;;;;;;4.05;1.00;;;;;;;12.04;66.41;98916.63;4418559;32;34065;-87
2022/04/25 06:28:00;;;;;;;2.60;0.90;;;;;;;12.01;65.97;98920.00;4425437;32;32200;-87
2022/04/25 06:30:29;;;;;;;2.17;0.70;;;;;;;12.14;65.78;98914.25;4424755;32;32638;-85
2022/04/25 06:32:58;;;;;;;1.87;0.88;;;;;;;12.20;66.20;98919.59;4424192;32;33686;-86
2022/04/25 06:35:29;;;;;;;2.25;0.70;;;;;;;12.56;66.26;98916.13;4438644;32;34023;-87
2022/04/25 06:37:57;;;;;;;2.95;0.80;;;;;;;12.66;64.81;98919.78;4436652;32;33583;-87
2022/04/25 06:40:25;;;;;;;1.85;0.70;;;;;;;12.79;66.09;98927.00;4423856;32;34524;-85
2022/04/25 06:42:55;;;;;;;2.53;0.80;;;;;;;12.84;65.26;98934.03;4409343;32;33268;-85
2022/04/25 06:45:24;;;;;;;3.70;1.02;;;;;;;12.97;64.60;98930.84;4411794;32;33761;-85
2022/04/25 06:47:53;;;;;;;2.70;0.68;;;;;;;13.17;63.83;98931.25;4423249;32;32173;-84
2022/04/25 06:50:21;;;;;;;3.95;0.70;;;;;;;12.92;63.99;98927.25;4436928;32;33732;-85
2022/04/25 06:52:49;;;;;;;3.65;1.10;;;;;;;12.99;64.90;98931.75;4422169;32;33928;-84
2022/04/25 06:55:17;;;;;;;3.08;0.93;;;;;;;13.01;63.81;98942.19;4411425;32;33298;-84
2022/04/25 06:57:47;;;;;;;5.70;1.40;;;;;;;13.22;64.43;98941.78;4398867;32;32000;-84
2022/04/25 07:00:17;;;;;;;3.45;1.05;;;;;;;13.30;64.22;98948.03;4409174;32;34554;-84
2022/04/25 07:03:02;;;;;;;2.53;0.73;;;;;;;13.47;63.23;98944.03;4412207;32;33506;-85
2022/04/25 07:05:30;;;;;;;3.28;1.00;;;;;;;13.59;62.66;98947.72;4411835;32;34104;-85
2022/04/25 07:07:58;;;;;;;2.80;0.85;;;;;;;13.47;62.40;98935.34;4422417;32;33754;-84
2022/04/25 07:10:25;;;;;;;2.42;0.93;;;;;;;13.46;62.35;98947.50;4421333;32;34601;-84
2022/04/25 07:12:55;;;;;;;3.65;1.10;;;;;;;13.41;61.28;98945.66;4424015;32;33840;-84
2022/04/25 07:15:24;;;;;;;2.92;0.95;;;;;;;13.73;60.44;98961.84;4409105;32;32613;-85
2022/04/25 07:17:55;;;;;;;2.75;1.10;;;;;;;13.90;60.75;98960.44;4412112;32;33944;-84
2022/04/25 07:20:24;;;;;;;3.75;1.00;;;;;;;13.75;61.09;98960.16;4420863;32;33345;-85
2022/04/25 07:31:13;;;;;;;2.22;0.95;;;;;;;14.04;60.91;98952.00;4426355;32;33575;-84
2022/04/25 07:33:43;;;;;;;3.85;0.80;;;;;;;14.13;59.72;98954.75;4438546;32;33846;-84
2022/04/25 07:36:30;;;;;;;4.18;0.90;;;;;;;14.40;59.44;98950.84;4422762;32;35750;-85
2022/04/25 07:38:57;;;;;;;3.22;0.80;;;;;;;14.64;58.48;98951.28;4424600;32;34452;-84
2022/04/25 07:41:27;;;;;;;2.87;0.90;;;;;;;15.05;57.10;98948.34;4425287;32;34180;-84
2022/04/25 07:44:04;;;;;;;5.18;1.00;;;;;;;14.91;57.09;98947.28;4422452;32;32064;-84
2022/04/25 07:46:32;;;;;;;2.87;0.95;;;;;;;16.54;54.60;98955.97;4421180;32;34136;-84
2022/04/25 07:49:00;;;;;;;3.17;1.17;;;;;;;15.91;55.17;98959.78;4398496;32;32932;-85
2022/04/25 07:51:28;;;;;;;4.60;1.17;;;;;;;15.35;56.12;98960.03;4429719;32;33997;-85
2022/04/25 07:53:56;;;;;;;3.45;1.27;;;;;;;16.38;54.44;98961.09;4430019;32;34555;-84
2022/04/25 07:56:26;;;;;;;2.83;1.30;;;;;;;15.81;54.49;98968.41;4438053;32;34173;-85
2022/04/25 07:58:53;;;;;;;1.98;0.90;;;;;;;16.40;52.17;98968.91;4437838;32;34242;-84
2022/04/25 08:01:21;;;;;;;2.83;1.20;;;;;;;16.65;51.53;98957.81;4424944;32;33919;-84
2022/04/25 08:03:49;;;;;;;2.85;0.88;;;;;;;16.68;50.44;98955.19;4424896;32;32949;-85
2022/04/25 08:06:20;;;;;;;1.70;0.80;;;;;;;18.31;47.88;98964.53;4432821;32;34089;-85
2022/04/25 08:08:52;;;;;;;3.45;1.33;;;;;;;18.44;45.98;98967.16;4425536;32;33642;-85
2022/04/25 08:11:21;;;;;;;2.87;1.30;;;;;;;19.72;43.83;98956.34;4430205;32;34219;-84
2022/04/25 08:19:21;;;;;;;2.83;0.95;;;;;;;19.45;43.72;98952.94;4431520;32;33511;-85
2022/04/25 08:21:49;;;;;;;3.75;1.33;;;;;;;20.16;41.25;98952.53;4412381;32;33683;-85
2022/04/25 08:24:17;;;;;;;1.58;0.70;;;;;;;19.17;42.10;98949.56;4424077;32;33822;-84
2022/04/25 08:26:44;;;;;;;3.15;1.00;;;;;;;17.83;44.97;98956.59;4397118;32;32930;-85
2022/04/25 08:29:12;;;;;;;2.22;0.90;;;;;;;19.37;43.09;98957.37;4421224;32;33638;-85
2022/04/25 08:31:40;;;;;;;3.30;0.98;;;;;;;19.94;41.79;98958.84;4423538;32;33748;-84
2022/04/25 08:34:09;;;;;;;2.62;1.15;;;;;;;18.51;43.79;98969.78;4409800;32;34660;-85
2022/04/25 08:36:37;;;;;;;4.50;1.27;;;;;;;17.48;46.98;98966.13;4411356;32;34206;-85
2022/04/25 08:39:05;;;;;;;2.28;1.02;;;;;;;18.94;44.81;98960.12;4437609;32;33622;-85
2022/04/25 08:41:41;;;;;;;3.05;0.90;;;;;;;17.52;47.41;98971.34;4423925;32;34426;-86
2022/04/25 08:44:10;;;;;;;2.90;0.90;;;;;;;19.67;43.39;98971.22;4419880;32;34070;-85
2022/04/25 08:46:39;;;;;;;5.10;1.30;;;;;;;19.30;43.35;98981.03;4421006;32;34184;-85
2022/04/25 08:49:10;;;;;;;2.30;1.00;;;;;;;16.65;50.24;98983.97;4423563;32;33241;-85
2022/04/25 08:51:40;;;;;;;3.90;1.20;;;;;;;17.94;48.97;98986.31;4423833;32;33698;-84
2022/04/25 08:54:08;;;;;;;2.97;1.20;;;;;;;15.88;51.79;98985.91;4410114;32;33105;-85
2022/04/25 08:56:39;;;;;;;2.50;1.30;;;;;;;16.58;51.08;98984.75;4422442;32;34153;-84
2022/04/25 08:59:08;;;;;;;3.00;1.00;;;;;;;16.03;50.65;98986.91;4405385;32;32599;-84
2022/04/25 09:01:37;;;;;;;2.85;1.45;;;;;;;17.53;48.67;98983.56;4422529;32;33371;-85
2022/04/25 09:04:04;;;;;;;4.65;1.15;;;;;;;17.96;49.48;98991.56;4410338;32;31447;-86
2022/04/25 09:06:33;;;;;;;1.67;0.70;;;;;;;18.13;47.71;98992.47;4408721;32;32660;-85
2022/04/25 09:09:01;;;;;;;2.03;0.70;;;;;;;17.62;47.18;98978.38;4422417;32;35876;-85
2022/04/25 09:14:16;;;;;;;1.55;0.73;;;;;;;17.74;47.13;98998.50;4425165;32;36367;-85
2022/04/25 09:16:44;;;;;;;2.87;0.90;;;;;;;17.45;48.05;98997.50;4419539;32;34748;-85
2022/04/25 09:19:13;;;;;;;1.92;0.80;;;;;;;17.98;46.82;98997.69;4409250;32;31388;-86
2022/04/25 09:21:42;;;;;;;1.92;0.60;;;;;;;17.81;46.36;99006.38;4418387;32;35181;-86
2022/04/25 09:24:46;;;;;;;1.75;0.60;;;;;;;17.06;47.03;99004.28;4407654;32;33979;-85
2022/04/25 09:27:19;;;;;;;1.20;0.50;;;;;;;17.27;47.52;99006.16;4371971;32;32582;-85
2022/04/25 09:29:48;;;;;;;0.60;0.35;;;;;;;18.18;45.60;99006.47;4422718;32;33559;-85
2022/04/25 09:32:17;;;;;;;1.30;0.70;;;;;;;17.78;45.52;99006.34;4415192;32;33624;-84
2022/04/25 09:35:02;;;;;;;0.95;0.35;;;;;;;17.99;46.59;99009.94;4433807;32;33521;-85
2022/04/25 09:37:45;;;;;;;2.37;0.50;;;;;;;17.64;46.95;99008.94;4418528;32;32663;-84
2022/04/25 09:43:08;;;;;;;2.40;0.60;;;;;;;17.57;46.42;99016.75;4420725;32;33831;-83
2022/04/25 09:45:39;;;;;;;2.72;0.82;;;;;;;18.00;46.17;99011.66;4408008;32;31811;-84
2022/04/25 09:48:13;;;;;;;1.87;0.40;;;;;;;17.77;46.14;99009.84;4419885;32;34026;-84
2022/04/25 09:50:40;;;;;;;1.17;0.60;;;;;;;17.96;45.16;99025.63;4408053;32;34335;-84
2022/04/25 09:53:15;;;;;;;2.55;0.65;;;;;;;17.59;45.51;99022.88;4421657;32;33609;-83
2022/04/25 09:55:42;;;;;;;1.80;0.62;;;;;;;17.42;47.58;99028.94;4407570;32;32933;-84
2022/04/25 09:58:19;;;;;;;4.15;0.77;;;;;;;17.27;47.38;99034.94;4407073;32;32840;-84
2022/04/25 10:00:49;;;;;;;1.90;0.70;;;;;;;17.40;45.30;99041.13;4420935;32;34495;-83
2022/04/25 10:03:17;;;;;;;2.72;0.80;;;;;;;17.12;47.19;99036.62;4420359;32;33884;-83
2022/04/25 10:05:47;;;;;;;3.45;0.70;;;;;;;17.28;48.57;99027.97;4404777;32;31942;-83
2022/04/25 10:08:18;;;;;;;2.22;0.70;;;;;;;17.70;46.30;99034.28;4422516;32;32895;-83
2022/04/25 10:10:53;;;;;;;1.42;0.70;;;;;;;18.38;45.59;99035.31;4409418;32;33807;-83
2022/04/25 10:13:21;;;;;;;1.30;0.70;;;;;;;17.67;46.40;99034.25;4419817;32;33289;-83
2022/04/25 10:15:48;;;;;;;1.90;0.50;;;;;;;18.46;45.71;99037.94;4402976;32;32777;-83
2022/04/25 10:18:16;;;;;;;1.02;0.60;;;;;;;18.38;44.75;99039.69;4417265;32;34777;-82
2022/04/25 10:20:46;;;;;;;2.28;0.70;;;;;;;18.04;44.75;99044.88;4422241;32;34465;-83
2022/04/25 10:23:16;;;;;;;1.00;0.50;;;;;;;17.48;45.13;99042.03;4412672;32;34228;-83
2022/04/25 10:25:49;;;;;;;2.60;0.62;;;;;;;18.06;44.71;99043.16;4420067;32;33817;-83
2022/04/25 10:28:30;;;;;;;1.45;0.50;;;;;;;17.76;44.82;99039.53;4417480;32;33886;-87
2022/04/25 10:31:08;;;;;;;1.80;0.77;;;;;;;18.84;44.45;99039.75;4408976;32;32558;-83
2022/04/25 10:33:56;;;;;;;1.48;0.70;;;;;;;17.22;48.15;99052.34;4416974;32;33949;-84
2022/04/25 10:36:45;;;;;;;2.05;1.00;;;;;;;17.14;47.18;99050.56;4407691;32;34144;-84
2022/04/25 10:39:16;;;;;;;3.17;0.90;;;;;;;17.58;47.39;99049.94;4418061;32;33883;-84
2022/04/25 10:44:43;;;;;;;2.53;0.90;;;;;;;17.61;46.57;99058.66;4436065;32;34074;-85
2022/04/25 10:47:12;;;;;;;3.75;0.80;;;;;;;17.05;46.56;99054.00;4419213;32;33603;-87
2022/04/25 10:49:44;;;;;;;2.83;0.90;;;;;;;17.08;46.31;99052.28;4433190;32;34832;-84
2022/04/25 10:52:33;;;;;;;3.80;0.80;;;;;;;17.14;46.30;99063.66;4416646;32;33605;-83
2022/04/25 10:55:23;;;;;;;2.03;0.70;;;;;;;17.05;47.39;99064.47;4430445;32;34635;-84
2022/04/25 10:58:03;;;;;;;3.10;1.05;;;;;;;17.32;46.17;99063.75;4419898;32;33458;-84
2022/04/25 11:00:41;;;;;;;1.48;0.60;;;;;;;17.02;46.20;99070.56;4432521;32;33816;-83
2022/04/25 11:03:15;;;;;;;2.80;0.70;;;;;;;17.10;46.82;99074.09;4419016;32;33590;-83
2022/04/25 11:05:48;;;;;;;5.37;0.90;;;;;;;17.77;46.16;99075.34;4408530;32;32006;-83
2022/04/25 11:08:16;;;;;;;1.98;0.88;;;;;;;17.19;47.66;99078.53;4406600;32;32614;-82
2022/04/25 11:10:45;;;;;;;3.33;0.82;;;;;;;17.59;46.91;99078.72;4418846;32;33080;-82
2022/04/25 11:13:21;;;;;;;1.35;0.70;;;;;;;18.52;46.23;99073.81;4421371;32;32021;-84
2022/04/25 11:15:51;;;;;;;2.42;0.80;;;;;;;18.73;43.90;99072.94;4421701;32;33593;-87
2022/04/25 11:18:36;;;;;;;2.35;0.95;;;;;;;18.35;44.98;99081.63;4421114;32;33786;-84
2022/04/25 11:21:11;;;;;;;6.15;0.77;;;;;;;17.80;44.93;99085.81;4432638;32;34387;-84
2022/04/25 11:23:51;;;;;;;1.98;0.75;;;;;;;17.30;46.74;99096.91;4420400;32;34412;-85
2022/04/25 11:26:23;;;;;;;5.28;1.30;;;;;;;17.18;46.17;99096.84;4411918;32;32855;-85
2022/04/25 11:29:03;;;;;;;2.12;0.70;;;;;;;17.15;45.43;99091.56;4430408;32;32782;-86
2022/04/25 11:31:32;;;;;;;1.08;0.50;;;;;;;17.67;46.45;99089.25;4418273;32;32434;-84
2022/04/25 11:34:04;;;;;;;1.40;0.45;;;;;;;18.06;44.71;99090.31;4417759;32;31578;-83
2022/04/25 11:36:43;;;;;;;3.55;0.50;;;;;;;17.66;44.75;99092.75;4405215;32;30626;-83
2022/04/25 11:42:06;;;;;;;1.27;0.47;;;;;;;17.85;45.52;99102.47;4432237;32;33805;-83
2022/04/25 11:44:38;;;;;;;1.48;0.65;;;;;;;17.82;44.21;99107.66;4407422;32;33513;-84
2022/04/25 11:47:06;;;;;;;2.35;0.50;;;;;;;17.26;45.97;99105.59;4413640;32;34662;-85
2022/04/25 11:49:38;;;;;;;2.22;0.70;;;;;;;17.83;44.97;99114.66;4409572;32;33673;-85
2022/04/25 11:52:06;;;;;;;1.62;0.60;;;;;;;18.21;45.18;99115.69;4421210;32;32880;-85
2022/04/25 11:54:34;;;;;;;1.92;0.60;;;;;;;17.93;44.22;99119.97;4422125;32;34085;-83
2022/04/25 11:57:02;;;;;;;2.60;0.68;;;;;;;18.38;43.84;99116.59;4421731;32;33434;-88
2022/04/25 11:59:31;;;;;;;2.15;0.60;;;;;;;18.30;44.41;99110.47;4420848;32;34695;-86
2022/04/25 12:01:59;;;;;;;1.02;0.60;;;;;;;17.81;42.20;99116.41;4413911;32;33745;-84
2022/04/25 12:04:34;;;;;;;1.67;0.30;;;;;;;17.58;43.22;99120.66;4407554;32;32865;-83
2022/04/25 12:07:04;;;;;;;2.80;0.50;;;;;;;17.74;44.25;99125.09;4420118;32;32746;-82
2022/04/25 12:15:34;;;;;;;2.50;0.40;;;;;;;18.13;41.57;99123.53;4433792;32;33581;-84
2022/04/25 12:18:12;;;;;;;1.15;0.60;;;;;;;17.81;42.59;99115.50;4433574;32;32766;-90
2022/04/25 12:20:41;;;;;;;1.20;0.43;;;;;;;18.88;40.89;99114.97;4406432;32;33234;-85
2022/04/25 12:23:10;;;;;;;1.40;0.50;;;;;;;18.91;40.13;99120.22;4421322;32;34727;-84
2022/04/25 12:25:41;;;;;;;3.15;0.70;;;;;;;19.58;41.08;99118.38;4403183;32;32246;-85
2022/04/25 12:28:12;;;;;;;0.80;0.52;;;;;;;19.51;39.98;99116.63;4421941;32;34421;-83
2022/04/25 12:31:00;;;;;;;1.70;0.45;;;;;;;19.29;40.07;99127.19;4405092;32;33931;-86
2022/04/25 12:33:35;;;;;;;0.90;0.40;;;;;;;19.19;39.87;99117.56;4435438;32;34238;-86